Time;durP1;ratioP1;P1;durP2;ratioP2;P2;SDS_P1;SDS_P2;PMS_P1;PMS_P2;Temp;Humidity;BMP_temperature;BMP_pressure;BME280_temperature;BME280_humidity;BME280_pressure;Samples;Min_cycle;Max_cycle;Signal;HPM_P1;HPM_P2
2021/07/25 00:00:07;;;;;;;13.63;12.10;;;19.90;99.90;;;;;;5043311;28;20993;-46
2021/07/25 00:02:35;;;;;;;12.20;11.07;;;19.90;99.90;;;;;;5042270;28;20200;-49
2021/07/25 00:05:02;;;;;;;15.80;11.57;;;19.90;99.90;;;;;;5043485;28;20238;-47
2021/07/25 00:07:28;;;;;;;15.90;11.60;;;19.80;99.90;;;;;;5049457;28;20196;-46
2021/07/25 00:09:56;;;;;;;13.33;11.40;;;19.80;99.90;;;;;;5044448;28;20191;-50
2021/07/25 00:12:23;;;;;;;13.77;11.87;;;19.80;99.90;;;;;;5035006;28;20680;-46
2021/07/25 00:14:50;;;;;;;13.37;11.33;;;19.80;99.90;;;;;;5045414;28;20207;-49
2021/07/25 00:17:16;;;;;;;14.97;11.53;;;19.80;99.90;;;;;;5049208;28;20191;-48
2021/07/25 00:19:43;;;;;;;12.47;11.10;;;19.80;99.90;;;;;;5045946;28;20298;-46
2021/07/25 00:22:10;;;;;;;13.10;11.80;;;19.80;99.90;;;;;;5046863;28;20222;-47
2021/07/25 00:24:38;;;;;;;13.57;12.17;;;19.80;99.90;;;;;;5044815;28;20542;-46
2021/07/25 00:27:06;;;;;;;14.40;12.13;;;19.70;99.90;;;;;;5048200;28;20191;-45
2021/07/25 00:29:33;;;;;;;13.17;11.40;;;19.80;99.90;;;;;;5034798;28;20210;-49
2021/07/25 00:32:01;;;;;;;14.30;11.77;;;19.70;99.90;;;;;;5047610;28;20183;-45
2021/07/25 00:34:29;;;;;;;12.70;11.47;;;19.70;99.90;;;;;;5048761;28;20401;-46
2021/07/25 00:36:56;;;;;;;13.60;11.57;;;19.70;99.90;;;;;;5046428;28;20494;-46
2021/07/25 00:39:23;;;;;;;12.90;11.67;;;19.70;99.90;;;;;;5048537;28;20198;-46
2021/07/25 00:41:50;;;;;;;14.77;12.13;;;19.70;99.90;;;;;;5045103;28;20925;-46
2021/07/25 00:44:18;;;;;;;15.87;11.70;;;19.70;99.90;;;;;;5035496;28;20585;-48
2021/07/25 00:46:46;;;;;;;16.07;12.50;;;19.60;99.90;;;;;;5045208;28;20215;-48
2021/07/25 00:49:13;;;;;;;13.47;11.83;;;19.60;99.90;;;;;;5048467;28;20191;-45
2021/07/25 00:51:40;;;;;;;13.03;11.73;;;19.70;99.90;;;;;;5045292;28;20183;-46
2021/07/25 00:54:07;;;;;;;14.17;12.67;;;19.60;99.90;;;;;;5047338;28;20200;-46
2021/07/25 00:56:34;;;;;;;12.63;11.33;;;19.70;99.90;;;;;;5046564;28;20722;-47
2021/07/25 00:59:01;;;;;;;12.70;11.37;;;19.70;99.90;;;;;;5046614;28;20183;-45
2021/07/25 01:01:29;;;;;;;13.93;12.53;;;19.60;99.90;;;;;;5034141;28;20269;-48
2021/07/25 01:04:17;;;;;;;15.10;12.03;;;19.60;99.90;;;;;;5044589;28;20196;-48
2021/07/25 01:07:00;;;;;;;15.53;12.60;;;19.60;99.90;;;;;;5044771;28;20215;-45
2021/07/25 01:09:45;;;;;;;14.90;12.50;;;19.60;99.90;;;;;;5048023;28;20699;-44
2021/07/25 01:12:17;;;;;;;14.00;12.40;;;19.60;99.90;;;;;;5048204;28;20202;-46
2021/07/25 01:14:46;;;;;;;15.80;11.93;;;19.60;99.90;;;;;;5044030;28;20227;-45
2021/07/25 01:17:29;;;;;;;14.90;11.90;;;19.60;99.90;;;;;;5033179;28;20301;-46
2021/07/25 01:19:57;;;;;;;12.53;11.07;;;19.50;99.90;;;;;;5043945;28;20241;-46
2021/07/25 01:22:24;;;;;;;11.87;10.67;;;19.40;99.90;;;;;;5047961;28;20257;-45
2021/07/25 01:24:51;;;;;;;12.27;11.07;;;19.50;99.90;;;;;;5043711;28;20203;-47
2021/07/25 01:27:24;;;;;;;13.93;11.63;;;19.60;99.90;;;;;;5047461;28;20191;-46
2021/07/25 01:29:52;;;;;;;13.67;11.83;;;19.60;99.90;;;;;;5044434;28;20202;-50
2021/07/25 01:32:19;;;;;;;12.90;11.60;;;19.60;99.90;;;;;;5034630;28;20221;-48
2021/07/25 01:34:47;;;;;;;12.40;11.20;;;19.60;99.90;;;;;;5043641;28;20229;-49
2021/07/25 01:37:16;;;;;;;14.00;11.67;;;19.50;99.90;;;;;;5047618;28;20195;-47
2021/07/25 01:39:43;;;;;;;12.53;11.23;;;19.60;99.90;;;;;;5044002;28;20680;-49
2021/07/25 01:42:10;;;;;;;13.00;10.90;;;19.50;99.90;;;;;;5047285;28;20583;-47
2021/07/25 01:44:36;;;;;;;12.07;10.87;;;19.50;99.90;;;;;;5060726;28;20660;-47
2021/07/25 01:47:04;;;;;;;13.33;10.50;;;19.50;99.90;;;;;;5046369;28;20207;-49
2021/07/25 01:49:30;;;;;;;12.63;10.83;;;19.50;99.90;;;;;;5046450;28;20287;-47
2021/07/25 01:51:57;;;;;;;12.03;10.80;;;19.40;99.90;;;;;;5045132;28;20194;-46
2021/07/25 01:54:25;;;;;;;12.83;11.43;;;19.40;99.90;;;;;;5045820;28;20661;-48
2021/07/25 01:56:51;;;;;;;12.70;11.40;;;19.40;99.90;;;;;;5044196;28;20211;-48
2021/07/25 01:59:18;;;;;;;12.87;10.93;;;19.40;99.90;;;;;;5047703;28;20282;-46
2021/07/25 02:01:45;;;;;;;12.27;10.97;;;19.30;99.90;;;;;;5030981;28;20214;-45
2021/07/25 02:04:11;;;;;;;12.20;10.57;;;19.30;99.90;;;;;;5046426;28;20203;-47
2021/07/25 02:06:38;;;;;;;16.23;10.97;;;19.30;99.90;;;;;;5045020;28;20583;-45
2021/07/25 02:09:05;;;;;;;14.67;9.90;;;19.30;99.90;;;;;;5045842;28;21207;-46
2021/07/25 02:11:33;;;;;;;13.10;10.47;;;19.30;99.90;;;;;;5045258;28;20202;-49
2021/07/25 02:14:00;;;;;;;14.13;11.03;;;19.30;99.90;;;;;;5045067;28;20188;-46
2021/07/25 02:16:26;;;;;;;12.67;10.60;;;19.30;99.90;;;;;;5047541;28;20599;-45
2021/07/25 02:18:53;;;;;;;14.93;11.33;;;19.30;99.90;;;;;;5030218;28;20195;-46
2021/07/25 02:21:19;;;;;;;12.60;10.60;;;19.20;99.90;;;;;;5046038;28;20592;-47
2021/07/25 02:23:46;;;;;;;15.00;11.27;;;19.20;99.90;;;;;;5042553;28;20188;-47
2021/07/25 02:26:13;;;;;;;13.40;11.10;;;19.20;99.90;;;;;;5047262;28;20582;-45
2021/07/25 02:28:41;;;;;;;13.57;10.87;;;19.20;99.90;;;;;;5044565;28;20195;-45
2021/07/25 02:31:07;;;;;;;12.53;11.23;;;19.20;99.90;;;;;;5044123;28;20194;-48
2021/07/25 02:33:34;;;;;;;13.00;11.00;;;19.20;99.90;;;;;;5041059;28;20572;-46
2021/07/25 02:36:00;;;;;;;13.73;10.00;;;19.20;99.90;;;;;;5039465;28;20977;-46
2021/07/25 02:38:27;;;;;;;13.33;11.13;;;19.20;99.90;;;;;;5047478;28;20202;-45
2021/07/25 02:40:54;;;;;;;14.17;11.27;;;19.20;99.90;;;;;;5044005;28;20253;-45
2021/07/25 02:43:20;;;;;;;12.70;11.03;;;19.20;99.90;;;;;;5047840;28;20309;-47
2021/07/25 02:45:48;;;;;;;13.97;10.87;;;19.20;99.90;;;;;;5042402;28;20218;-47
2021/07/25 02:48:15;;;;;;;11.57;10.23;;;19.20;99.90;;;;;;5047604;28;20430;-46
2021/07/25 02:50:41;;;;;;;12.77;10.80;;;19.20;99.90;;;;;;5031016;28;20200;-46
2021/07/25 02:53:08;;;;;;;12.70;11.20;;;19.20;99.90;;;;;;5046702;28;20195;-45
2021/07/25 02:55:34;;;;;;;13.60;10.87;;;19.20;99.90;;;;;;5045215;28;20711;-45
2021/07/25 02:58:01;;;;;;;14.27;11.47;;;19.20;99.90;;;;;;5045766;28;20805;-47
2021/07/25 03:00:28;;;;;;;14.20;11.17;;;19.20;99.90;;;;;;5050096;28;20286;-49
2021/07/25 03:02:56;;;;;;;13.67;12.27;;;19.20;99.90;;;;;;5046479;28;20219;-46
2021/07/25 03:05:23;;;;;;;12.47;10.67;;;19.20;99.90;;;;;;5037510;28;20230;-46
2021/07/25 03:07:50;;;;;;;13.13;11.00;;;19.20;99.90;;;;;;5045857;28;20202;-47
2021/07/25 03:10:18;;;;;;;13.93;11.53;;;19.20;99.90;;;;;;5050199;28;20202;-48
2021/07/25 03:12:44;;;;;;;16.77;11.87;;;19.10;99.90;;;;;;5046418;28;20206;-47
2021/07/25 03:15:11;;;;;;;13.13;11.13;;;19.20;99.90;;;;;;5050352;28;20215;-47
2021/07/25 03:17:38;;;;;;;13.13;11.57;;;19.20;99.90;;;;;;5047655;28;20203;-46
2021/07/25 03:20:07;;;;;;;13.17;11.77;;;19.20;99.90;;;;;;5048605;28;20209;-47
2021/07/25 03:22:35;;;;;;;13.37;11.17;;;19.20;99.90;;;;;;5035489;28;20226;-45
2021/07/25 03:25:02;;;;;;;12.77;11.47;;;19.20;99.90;;;;;;5040168;28;20211;-48
2021/07/25 03:27:29;;;;;;;12.80;11.43;;;19.10;99.90;;;;;;5049652;28;20195;-44
2021/07/25 03:29:56;;;;;;;13.93;11.60;;;19.10;99.90;;;;;;5046793;28;20270;-46
2021/07/25 03:32:23;;;;;;;15.97;12.67;;;19.20;99.90;;;;;;5049300;28;20191;-47
2021/07/25 03:34:50;;;;;;;13.23;11.43;;;19.20;99.90;;;;;;5046792;28;20211;-47
2021/07/25 03:37:18;;;;;;;17.50;12.03;;;19.10;99.90;;;;;;5037432;28;20219;-46
2021/07/25 03:39:46;;;;;;;13.87;12.47;;;19.10;99.90;;;;;;5046325;28;20226;-48
2021/07/25 03:42:14;;;;;;;14.97;12.10;;;19.10;99.90;;;;;;5050743;28;20245;-46
2021/07/25 03:44:41;;;;;;;15.40;12.70;;;19.10;99.90;;;;;;5047013;28;20195;-49
2021/07/25 03:47:08;;;;;;;14.90;12.63;;;19.10;99.90;;;;;;5049004;28;20195;-47
2021/07/25 03:49:34;;;;;;;13.10;11.90;;;19.10;99.90;;;;;;5047803;28;20198;-47
2021/07/25 03:52:03;;;;;;;16.50;13.03;;;19.10;99.90;;;;;;5035123;28;20203;-46
2021/07/25 03:54:31;;;;;;;14.60;12.13;;;19.10;99.90;;;;;;5048613;28;20195;-45
2021/07/25 03:56:57;;;;;;;14.83;13.07;;;19.10;99.90;;;;;;5046849;28;20195;-46
2021/07/25 03:59:24;;;;;;;14.57;13.07;;;19.10;99.90;;;;;;5047416;28;20200;-49
2021/07/25 04:01:51;;;;;;;15.43;12.60;;;19.10;99.90;;;;;;5045923;28;20203;-46
2021/07/25 04:04:17;;;;;;;15.37;13.30;;;19.10;99.90;;;;;;5049102;28;20202;-49
2021/07/25 04:06:44;;;;;;;17.47;13.67;;;19.10;99.90;;;;;;5035059;28;20203;-45
2021/07/25 04:09:10;;;;;;;14.17;12.77;;;19.10;99.90;;;;;;5048187;28;20649;-49
2021/07/25 04:11:38;;;;;;;15.10;13.50;;;19.10;99.90;;;;;;5047052;28;20195;-45
2021/07/25 04:14:05;;;;;;;16.33;13.63;;;19.10;99.90;;;;;;5042085;28;20195;-49
2021/07/25 04:16:31;;;;;;;15.93;12.73;;;19.10;99.90;;;;;;5048311;28;20211;-46
2021/07/25 04:18:58;;;;;;;18.33;14.17;;;19.10;99.90;;;;;;5042463;28;20906;-48
2021/07/25 04:21:26;;;;;;;19.47;13.70;;;19.20;99.90;;;;;;5049683;28;20215;-46
2021/07/25 04:23:52;;;;;;;16.40;13.07;;;19.20;99.90;;;;;;5031342;28;20199;-51
2021/07/25 04:26:19;;;;;;;15.17;12.37;;;19.20;99.90;;;;;;5049503;28;20265;-49
2021/07/25 04:28:48;;;;;;;15.30;13.43;;;19.20;99.90;;;;;;5045208;28;20194;-46
2021/07/25 04:31:15;;;;;;;15.47;13.73;;;19.20;99.90;;;;;;5049397;28;20198;-47
2021/07/25 04:33:43;;;;;;;16.97;14.63;;;19.20;99.90;;;;;;5044071;28;20187;-47
2021/07/25 04:36:13;;;;;;;15.23;13.40;;;19.20;99.90;;;;;;5048003;28;20251;-50
2021/07/25 04:38:41;;;;;;;16.43;14.63;;;19.10;99.90;;;;;;5035004;28;20188;-49
2021/07/25 04:41:10;;;;;;;18.13;14.43;;;19.20;99.90;;;;;;5044914;28;20665;-44
2021/07/25 04:43:39;;;;;;;18.87;16.07;;;19.20;99.90;;;;;;5046899;28;20204;-46
2021/07/25 04:46:11;;;;;;;20.37;15.73;;;19.20;99.90;;;;;;5047827;28;20196;-51
2021/07/25 04:48:45;;;;;;;22.53;18.00;;;19.20;99.90;;;;;;5044036;28;20256;-44
2021/07/25 04:51:13;;;;;;;23.70;18.57;;;19.20;99.90;;;;;;5042162;28;20191;-46
2021/07/25 04:53:41;;;;;;;28.13;20.97;;;19.30;99.90;;;;;;5045865;28;20199;-46
2021/07/25 04:56:10;;;;;;;30.47;22.13;;;19.30;99.90;;;;;;5034826;28;20227;-49
2021/07/25 04:58:41;;;;;;;28.00;22.13;;;19.30;99.90;;;;;;5046530;28;20191;-46
2021/07/25 05:01:13;;;;;;;25.70;20.87;;;19.40;99.90;;;;;;5047826;28;20214;-52
2021/07/25 05:03:41;;;;;;;26.97;21.13;;;19.40;99.90;;;;;;5042944;28;20215;-48
2021/07/25 05:06:11;;;;;;;24.17;20.23;;;19.50;99.90;;;;;;5047253;28;20216;-48
2021/07/25 05:08:38;;;;;;;23.53;20.83;;;19.50;99.90;;;;;;5046078;28;20202;-47
2021/07/25 05:11:13;;;;;;;26.87;21.70;;;19.60;99.90;;;;;;5034337;28;20203;-47
2021/07/25 05:13:43;;;;;;;25.73;22.23;;;19.60;99.90;;;;;;5044433;28;20660;-45
2021/07/25 05:16:15;;;;;;;26.57;21.93;;;19.60;99.90;;;;;;5047591;28;20215;-48
2021/07/25 05:18:46;;;;;;;27.53;21.13;;;19.70;99.90;;;;;;5044543;28;20698;-45
2021/07/25 05:21:23;;;;;;;30.50;23.67;;;19.80;99.90;;;;;;5043562;28;20575;-47
2021/07/25 05:23:53;;;;;;;30.57;23.07;;;19.80;99.90;;;;;;5042426;28;20178;-52
2021/07/25 05:26:24;;;;;;;29.10;23.03;;;19.80;99.90;;;;;;5033377;28;20222;-52
2021/07/25 05:28:54;;;;;;;25.60;22.80;;;19.80;99.90;;;;;;5043632;28;20207;-47
2021/07/25 05:31:29;;;;;;;29.53;23.30;;;19.80;99.90;;;;;;5048511;28;20203;-46
2021/07/25 05:33:55;;;;;;;28.77;23.03;;;19.80;99.90;;;;;;5045079;28;20186;-51
2021/07/25 05:36:22;;;;;;;27.57;22.77;;;19.80;99.90;;;;;;5043735;28;20219;-46
2021/07/25 05:38:48;;;;;;;27.73;23.00;;;19.90;99.90;;;;;;5043819;28;20288;-51
2021/07/25 05:41:15;;;;;;;30.20;23.80;;;19.90;99.90;;;;;;5035495;28;20212;-45
2021/07/25 05:43:42;;;;;;;28.83;24.07;;;20.00;99.90;;;;;;5044604;28;20215;-46
2021/07/25 05:46:08;;;;;;;27.63;23.27;;;20.00;99.90;;;;;;5042951;28;20985;-47
2021/07/25 05:48:36;;;;;;;28.40;23.10;;;20.00;99.90;;;;;;5047133;28;20199;-46
2021/07/25 05:51:03;;;;;;;29.50;23.50;;;20.10;99.90;;;;;;5040419;28;20294;-44
2021/07/25 05:53:30;;;;;;;30.57;23.57;;;20.10;99.90;;;;;;5047126;28;20202;-47
2021/07/25 05:55:57;;;;;;;27.53;23.03;;;20.10;99.90;;;;;;5039075;28;20223;-46
2021/07/25 05:58:23;;;;;;;29.00;23.03;;;20.20;99.90;;;;;;5039802;28;20207;-46
2021/07/25 06:00:51;;;;;;;29.00;22.83;;;20.20;99.90;;;;;;5046905;28;20661;-47
2021/07/25 06:03:18;;;;;;;26.53;22.80;;;20.30;99.90;;;;;;5042841;28;20219;-47
2021/07/25 06:05:46;;;;;;;23.93;21.40;;;20.30;99.90;;;;;;5047604;28;20211;-52
2021/07/25 06:08:13;;;;;;;28.17;23.13;;;20.40;99.90;;;;;;5039867;28;20196;-48
2021/07/25 06:10:42;;;;;;;27.53;22.47;;;20.40;99.90;;;;;;5046945;28;20211;-50
2021/07/25 06:13:09;;;;;;;26.80;23.17;;;20.40;99.90;;;;;;5031091;28;20937;-49
2021/07/25 06:15:36;;;;;;;29.63;23.13;;;20.40;99.90;;;;;;5046617;28;20689;-45
2021/07/25 06:18:05;;;;;;;26.53;23.10;;;20.40;99.90;;;;;;5042197;28;20207;-46
2021/07/25 06:20:33;;;;;;;24.13;21.57;;;20.40;99.90;;;;;;5045163;28;20253;-48
2021/07/25 06:23:01;;;;;;;31.37;22.83;;;20.50;99.90;;;;;;5039104;28;20227;-46
2021/07/25 06:25:29;;;;;;;29.33;23.20;;;20.50;99.90;;;;;;5041817;28;20225;-46
2021/07/25 06:27:58;;;;;;;28.57;22.37;;;20.60;99.90;;;;;;5030446;28;20219;-43
2021/07/25 06:30:26;;;;;;;27.90;22.63;;;20.60;99.90;;;;;;5043882;28;20192;-44
2021/07/25 06:32:54;;;;;;;28.87;21.90;;;20.70;99.90;;;;;;5048409;28;20247;-44
2021/07/25 06:35:21;;;;;;;27.93;21.77;;;20.80;99.90;;;;;;5048272;28;20215;-48
2021/07/25 06:37:48;;;;;;;24.23;21.60;;;20.80;99.90;;;;;;5050479;28;20203;-46
2021/07/25 06:40:16;;;;;;;26.23;21.73;;;20.80;99.90;;;;;;5047198;28;20463;-49
2021/07/25 06:42:43;;;;;;;24.83;20.13;;;20.90;99.90;;;;;;5036742;28;20681;-46
2021/07/25 06:45:10;;;;;;;23.07;20.67;;;20.90;99.90;;;;;;5046606;28;20203;-49
2021/07/25 06:47:37;;;;;;;25.40;21.23;;;21.00;99.90;;;;;;5049593;28;20560;-46
2021/07/25 06:50:04;;;;;;;26.00;21.33;;;21.00;99.90;;;;;;5046403;28;20202;-46
2021/07/25 06:52:31;;;;;;;24.33;21.07;;;21.00;99.90;;;;;;5047477;28;20199;-46
2021/07/25 06:54:57;;;;;;;22.20;19.83;;;21.00;99.90;;;;;;5049522;28;20207;-44
2021/07/25 06:57:25;;;;;;;23.10;19.53;;;21.10;99.90;;;;;;5048442;28;20187;-45
2021/07/25 06:59:52;;;;;;;28.10;20.37;;;21.10;99.90;;;;;;5031555;28;20215;-44
2021/07/25 07:02:19;;;;;;;25.17;19.50;;;21.20;99.90;;;;;;5047694;28;20269;-46
2021/07/25 07:04:45;;;;;;;24.63;19.03;;;21.20;99.90;;;;;;5049887;28;20197;-47
2021/07/25 07:07:12;;;;;;;22.50;18.83;;;21.20;99.90;;;;;;5046174;28;20203;-49
2021/07/25 07:09:38;;;;;;;22.43;18.87;;;21.20;99.90;;;;;;5049480;28;20558;-47
2021/07/25 07:12:06;;;;;;;20.03;17.93;;;21.30;99.90;;;;;;5046816;28;20196;-46
2021/07/25 07:14:34;;;;;;;19.83;17.73;;;21.30;99.90;;;;;;5033242;28;20272;-45
2021/07/25 07:17:00;;;;;;;24.53;17.83;;;21.30;99.90;;;;;;5039666;28;20200;-46
2021/07/25 07:19:27;;;;;;;18.33;16.43;;;21.30;99.90;;;;;;5046703;28;20557;-45
2021/07/25 07:21:53;;;;;;;19.67;16.50;;;21.40;99.90;;;;;;5042076;28;20951;-46
2021/07/25 07:24:20;;;;;;;17.90;15.27;;;21.30;99.90;;;;;;5049098;28;20571;-48
2021/07/25 07:26:47;;;;;;;15.57;13.93;;;21.40;99.90;;;;;;5045290;28;20210;-46
2021/07/25 07:29:14;;;;;;;17.80;15.27;;;21.50;99.90;;;;;;5031003;28;20196;-50
2021/07/25 07:31:42;;;;;;;18.80;15.77;;;21.60;99.90;;;;;;5043160;28;20199;-46
2021/07/25 07:34:09;;;;;;;20.33;16.33;;;21.60;99.90;;;;;;5048216;28;20656;-46
2021/07/25 07:36:35;;;;;;;17.50;15.40;;;21.80;99.90;;;;;;5039448;28;20225;-48
2021/07/25 07:39:02;;;;;;;17.13;14.60;;;21.80;99.90;;;;;;5042592;28;20696;-54
2021/07/25 07:41:28;;;;;;;21.07;16.50;;;21.90;99.90;;;;;;5045456;28;20199;-49
2021/07/25 07:43:55;;;;;;;18.67;15.13;;;21.90;99.90;;;;;;5041788;28;20203;-48
2021/07/25 07:46:22;;;;;;;18.57;14.90;;;21.90;99.90;;;;;;5031435;28;20301;-47
2021/07/25 07:48:50;;;;;;;17.00;13.67;;;22.00;99.90;;;;;;5040482;28;20302;-52
2021/07/25 07:51:16;;;;;;;17.50;14.83;;;22.10;99.90;;;;;;5041375;28;20683;-49
2021/07/25 07:53:43;;;;;;;15.97;14.37;;;22.20;99.90;;;;;;5041137;28;20197;-48
2021/07/25 07:56:09;;;;;;;16.40;14.70;;;22.20;99.90;;;;;;5046311;28;20206;-49
2021/07/25 07:58:37;;;;;;;15.30;13.77;;;22.30;99.90;;;;;;5044366;28;20203;-47
2021/07/25 08:01:03;;;;;;;16.83;15.13;;;22.40;99.90;;;;;;5030932;28;20199;-46
2021/07/25 08:03:30;;;;;;;16.47;14.63;;;22.50;99.90;;;;;;5042849;28;20231;-43
2021/07/25 08:05:58;;;;;;;17.37;15.37;;;22.60;99.90;;;;;;5035552;28;20223;-45
2021/07/25 08:08:25;;;;;;;15.37;13.37;;;22.60;99.90;;;;;;5039559;28;20210;-47
2021/07/25 08:10:51;;;;;;;15.70;13.70;;;22.60;99.90;;;;;;5039509;28;20681;-47
2021/07/25 08:13:18;;;;;;;14.68;13.20;;;22.70;99.90;;;;;;5039590;28;20652;-45
2021/07/25 08:15:45;;;;;;;15.10;13.52;;;22.70;99.90;;;;;;5031897;28;20676;-47
2021/07/25 08:18:11;;;;;;;16.42;14.75;;;22.80;99.90;;;;;;5043076;28;20202;-46
2021/07/25 08:20:38;;;;;;;14.87;13.27;;;22.80;99.90;;;;;;5040089;28;20198;-46
2021/07/25 08:23:06;;;;;;;15.70;14.10;;;23.00;99.90;;;;;;5035990;28;20220;-50
2021/07/25 08:25:33;;;;;;;16.05;14.15;;;23.10;99.90;;;;;;5042552;28;20212;-46
2021/07/25 08:28:00;;;;;;;14.77;12.98;;;23.20;99.90;;;;;;5044407;28;20203;-45
2021/07/25 08:30:29;;;;;;;19.60;14.90;;;23.30;99.90;;;;;;5044583;28;20947;-47
2021/07/25 08:32:56;;;;;;;15.07;13.63;;;23.30;99.90;;;;;;5035122;28;20582;-47
2021/07/25 08:35:23;;;;;;;15.32;13.73;;;23.40;99.90;;;;;;5040284;28;20215;-45
2021/07/25 08:37:50;;;;;;;15.43;13.77;;;23.40;99.90;;;;;;5046273;28;20653;-47
2021/07/25 08:40:21;;;;;;;14.50;12.93;;;23.40;99.90;;;;;;5041312;28;20613;-46
2021/07/25 08:42:57;;;;;;;14.13;12.70;;;23.50;99.90;;;;;;5044325;28;20590;-46
2021/07/25 08:45:24;;;;;;;12.93;11.55;;;23.60;99.90;;;;;;5045060;28;20211;-49
2021/07/25 08:48:00;;;;;;;13.82;12.43;;;23.60;99.90;;;;;;5027078;28;20203;-49
2021/07/25 08:50:27;;;;;;;13.35;12.07;;;23.60;99.90;;;;;;5034517;28;20199;-49
2021/07/25 08:52:55;;;;;;;14.00;12.60;;;23.60;99.90;;;;;;5045341;28;20191;-44
2021/07/25 08:55:24;;;;;;;14.48;12.88;;;23.60;99.90;;;;;;5044494;28;20223;-47
2021/07/25 08:57:52;;;;;;;15.43;11.98;;;23.70;99.90;;;;;;5037297;28;20204;-45
2021/07/25 09:00:20;;;;;;;13.30;11.55;;;23.80;99.90;;;;;;5042934;28;20191;-48
2021/07/25 09:02:48;;;;;;;13.32;12.02;;;23.90;99.90;;;;;;5033757;28;20561;-45
2021/07/25 09:05:15;;;;;;;13.63;12.25;;;23.80;99.90;;;;;;5039024;28;20322;-46
2021/07/25 09:07:45;;;;;;;13.93;12.43;;;23.90;99.90;;;;;;5046499;28;20696;-46
2021/07/25 09:10:14;;;;;;;13.77;11.98;;;23.90;99.90;;;;;;5041272;28;20282;-49
2021/07/25 09:12:42;;;;;;;13.85;12.02;;;24.00;99.90;;;;;;5039988;28;20203;-44
2021/07/25 09:15:11;;;;;;;14.68;13.18;;;24.10;99.90;;;;;;5041117;28;20215;-46
2021/07/25 09:17:39;;;;;;;12.15;11.00;;;24.10;99.90;;;;;;5042765;28;20215;-45
2021/07/25 09:20:14;;;;;;;11.93;10.73;;;24.20;99.90;;;;;;5026458;28;20223;-47
2021/07/25 09:23:09;;;;;;;13.02;11.73;;;24.40;99.90;;;;;;5046364;28;20736;-48
2021/07/25 09:25:40;;;;;;;14.73;12.25;;;24.40;99.90;;;;;;5041473;28;20234;-45
2021/07/25 09:28:20;;;;;;;12.73;11.48;;;24.40;99.90;;;;;;5034062;28;20196;-48
2021/07/25 09:30:47;;;;;;;13.35;11.70;;;24.50;99.90;;;;;;5037396;28;20209;-48
2021/07/25 09:33:34;;;;;;;13.32;11.38;;;24.60;99.90;;;;;;5034955;28;20200;-47
2021/07/25 09:36:11;;;;;;;12.43;11.10;;;24.70;99.90;;;;;;5025586;28;20226;-48
2021/07/25 09:38:38;;;;;;;11.25;10.10;;;24.80;99.90;;;;;;5040420;28;20199;-47
2021/07/25 09:41:16;;;;;;;11.27;10.00;;;24.80;99.90;;;;;;5040101;28;20222;-47
2021/07/25 09:43:56;;;;;;;9.80;8.90;;;24.80;99.90;;;;;;5037695;28;20237;-45
2021/07/25 09:46:23;;;;;;;10.35;8.80;;;24.90;99.90;;;;;;5042702;28;20735;-46
2021/07/25 09:48:55;;;;;;;10.43;8.73;;;24.90;99.90;;;;;;5038002;28;20195;-46
2021/07/25 09:51:23;;;;;;;10.40;9.43;;;24.90;99.90;;;;;;5030166;28;20210;-47
2021/07/25 09:53:53;;;;;;;10.93;9.90;;;24.90;99.90;;;;;;5039029;28;20200;-46
2021/07/25 09:56:23;;;;;;;10.10;9.20;;;24.90;99.90;;;;;;5043896;28;20226;-48
2021/07/25 09:58:52;;;;;;;10.45;9.35;;;25.00;99.90;;;;;;5039544;28;20200;-47
2021/07/25 10:01:38;;;;;;;10.02;9.13;;;25.10;99.90;;;;;;5039796;28;20279;-47
2021/07/25 10:04:17;;;;;;;10.75;9.75;;;25.20;99.90;;;;;;5032802;28;20498;-48
2021/07/25 10:06:45;;;;;;;9.73;8.90;;;25.10;99.90;;;;;;5030402;28;20241;-47
2021/07/25 10:09:13;;;;;;;10.35;9.25;;;25.20;99.90;;;;;;5044549;28;20965;-49
2021/07/25 10:11:43;;;;;;;9.10;8.20;;;25.30;99.90;;;;;;5050030;28;20246;-48
2021/07/25 10:14:11;;;;;;;10.27;9.27;;;25.40;99.90;;;;;;5040608;28;20210;-49
2021/07/25 10:16:38;;;;;;;9.43;8.45;;;25.40;99.90;;;;;;5043566;28;20226;-43
2021/07/25 10:19:06;;;;;;;10.27;9.30;;;25.40;99.90;;;;;;5047377;28;20211;-48
2021/07/25 10:21:38;;;;;;;9.70;8.80;;;25.40;99.90;;;;;;5045056;28;20222;-46
2021/07/25 10:24:06;;;;;;;10.27;9.27;;;25.50;99.90;;;;;;5033187;28;20223;-47
2021/07/25 10:26:36;;;;;;;9.68;8.85;;;25.60;99.90;;;;;;5050940;28;20269;-48
2021/07/25 10:29:06;;;;;;;11.32;8.85;;;25.80;99.90;;;;;;5044384;28;20229;-47
2021/07/25 10:31:37;;;;;;;11.45;8.65;;;25.90;99.90;;;;;;5046549;28;20226;-48
2021/07/25 10:34:05;;;;;;;9.30;8.48;;;26.00;99.90;;;;;;5039755;28;20191;-49
2021/07/25 10:36:33;;;;;;;9.07;8.27;;;26.00;99.90;;;;;;5051471;28;20219;-46
2021/07/25 10:39:00;;;;;;;9.02;8.23;;;25.90;99.90;;;;;;5028098;28;20940;-50
2021/07/25 10:41:28;;;;;;;10.20;9.18;;;26.00;99.90;;;;;;5050266;28;20206;-49
2021/07/25 10:43:54;;;;;;;9.52;8.75;;;26.10;99.90;;;;;;5041676;28;20218;-46
2021/07/25 10:46:23;;;;;;;9.50;8.52;;;26.00;99.70;;;;;;5050874;28;20219;-47
2021/07/25 10:49:16;;;;;;;8.90;8.00;;;26.10;99.30;;;;;;5042284;28;20214;-45
2021/07/25 10:52:03;;;;;;;10.60;9.00;;;25.90;98.20;;;;;;5046967;28;20196;-47
2021/07/25 10:54:31;;;;;;;8.13;7.45;;;26.00;98.30;;;;;;5029606;28;20196;-48
2021/07/25 10:56:59;;;;;;;9.52;8.30;;;26.10;98.20;;;;;;5038197;28;20196;-50
2021/07/25 10:59:39;;;;;;;9.38;8.57;;;26.20;97.40;;;;;;5042689;28;20199;-51
2021/07/25 11:02:06;;;;;;;10.68;8.80;;;26.10;97.70;;;;;;5046036;28;20306;-49
2021/07/25 11:05:03;;;;;;;10.38;8.25;;;26.10;97.80;;;;;;5045344;28;20219;-46
2021/07/25 11:07:33;;;;;;;10.13;9.05;;;26.20;98.50;;;;;;5047187;28;20199;-49
2021/07/25 11:10:02;;;;;;;9.95;8.90;;;26.30;98.20;;;;;;5027222;28;20207;-51
2021/07/25 11:13:17;;;;;;;9.85;8.93;;;26.40;98.60;;;;;;5040989;28;20214;-45
2021/07/25 11:15:44;;;;;;;8.25;7.55;;;26.70;97.40;;;;;;5041025;28;20215;-49
2021/07/25 11:18:12;;;;;;;9.45;8.38;;;26.60;98.10;;;;;;5050803;28;20229;-48
2021/07/25 11:20:56;;;;;;;9.65;8.73;;;26.60;98.10;;;;;;5045403;28;20253;-48
2021/07/25 11:23:37;;;;;;;8.88;8.07;;;26.70;97.90;;;;;;5048941;28;20199;-48
2021/07/25 11:26:36;;;;;;;8.88;8.10;;;26.60;96.40;;;;;;5035467;28;20695;-49
2021/07/25 11:29:12;;;;;;;8.55;7.65;;;26.50;96.70;;;;;;5042189;28;20202;-50
2021/07/25 11:31:44;;;;;;;9.00;8.23;;;26.60;97.60;;;;;;5048440;28;20210;-46
2021/07/25 11:34:13;;;;;;;9.23;8.40;;;26.80;96.40;;;;;;5042602;28;20564;-50
2021/07/25 11:36:43;;;;;;;9.57;8.75;;;26.90;96.50;;;;;;5049515;28;20226;-50
2021/07/25 11:39:12;;;;;;;9.73;8.77;;;27.00;97.00;;;;;;5047964;28;20200;-53
2021/07/25 11:41:40;;;;;;;8.23;7.47;;;27.00;97.00;;;;;;5027898;28;20207;-47
2021/07/25 11:44:08;;;;;;;11.57;8.65;;;27.00;97.90;;;;;;5047730;28;20227;-48
2021/07/25 11:46:38;;;;;;;9.65;8.75;;;27.10;98.00;;;;;;5043590;28;20768;-49
2021/07/25 11:49:16;;;;;;;9.07;8.27;;;27.10;98.20;;;;;;5054321;28;20195;-50
2021/07/25 11:51:52;;;;;;;8.60;7.90;;;27.20;98.80;;;;;;5050945;28;20198;-48
2021/07/25 11:54:22;;;;;;;8.68;7.72;;;27.30;97.10;;;;;;5052510;28;20199;-45
2021/07/25 11:56:56;;;;;;;8.88;7.97;;;27.30;96.90;;;;;;5023979;28;20222;-51
2021/07/25 11:59:23;;;;;;;9.05;8.25;;;27.30;96.80;;;;;;5044142;28;20201;-47
2021/07/25 12:01:50;;;;;;;8.93;8.02;;;27.30;97.40;;;;;;5049670;28;20209;-45
2021/07/25 12:04:18;;;;;;;8.63;7.82;;;27.30;96.70;;;;;;5058697;28;20217;-47
2021/07/25 12:06:45;;;;;;;9.20;8.30;;;27.40;96.20;;;;;;5042881;28;20218;-47
2021/07/25 12:09:14;;;;;;;9.10;8.15;;;27.60;95.50;;;;;;5043613;28;20611;-46
2021/07/25 12:11:41;;;;;;;9.13;8.27;;;27.80;96.50;;;;;;5038786;28;20225;-49
2021/07/25 12:14:08;;;;;;;9.02;8.23;;;27.80;95.30;;;;;;5030754;28;20570;-51
2021/07/25 12:16:45;;;;;;;8.57;7.90;;;27.80;95.20;;;;;;5036977;28;21034;-45
2021/07/25 12:19:14;;;;;;;9.25;8.40;;;27.80;95.00;;;;;;5041951;28;21065;-49
2021/07/25 12:21:40;;;;;;;7.68;6.97;;;27.90;95.10;;;;;;5045909;28;20216;-45
2021/07/25 12:24:27;;;;;;;7.88;7.18;;;27.90;94.90;;;;;;5059505;28;20302;-45
2021/07/25 12:26:54;;;;;;;8.40;7.65;;;27.80;94.30;;;;;;5043733;28;20641;-45
2021/07/25 12:29:41;;;;;;;11.30;8.68;;;27.80;94.70;;;;;;5025753;28;20203;-53
2021/07/25 12:32:26;;;;;;;16.25;7.45;;;27.90;94.60;;;;;;5032958;28;20288;-49
2021/07/25 12:34:54;;;;;;;7.50;6.90;;;28.00;93.70;;;;;;5046698;28;20237;-44
2021/07/25 12:37:29;;;;;;;8.70;7.88;;;28.00;93.00;;;;;;5040175;28;20211;-50
2021/07/25 12:40:11;;;;;;;7.95;7.25;;;27.90;92.90;;;;;;5043635;28;20202;-47